Time;durP1;ratioP1;P1;durP2;ratioP2;P2;SDS_P1;SDS_P2;PMS_P1;PMS_P2;Temp;Humidity;BMP_temperature;BMP_pressure;BME280_temperature;BME280_humidity;BME280_pressure;Samples;Min_cycle;Max_cycle;Signal;HPM_P1;HPM_P2
2021/12/24 00:00:30;;;;;;;13.57;12.73;;;10.00;99.90;;;;;;5052895;28;20455;-73
2021/12/24 00:02:56;;;;;;;14.13;13.33;;;10.00;99.90;;;;;;5053153;28;20459;-72
2021/12/24 00:05:23;;;;;;;13.07;12.37;;;9.90;99.90;;;;;;5053411;28;20996;-72
2021/12/24 00:07:52;;;;;;;14.33;13.50;;;9.90;99.90;;;;;;5052984;28;20448;-72
2021/12/24 00:10:18;;;;;;;13.83;13.03;;;9.80;99.90;;;;;;5052912;28;20455;-72
2021/12/24 00:12:49;;;;;;;14.30;13.50;;;9.80;99.90;;;;;;5052932;28;20877;-72
2021/12/24 00:15:44;;;;;;;14.00;13.20;;;9.70;99.90;;;;;;5052777;28;20456;-72
2021/12/24 00:18:20;;;;;;;14.50;13.70;;;9.60;99.90;;;;;;5052652;28;20472;-72
2021/12/24 00:21:50;;;;;;;15.10;14.20;;;9.60;99.90;;;;;;5052626;28;20451;-73
2021/12/24 00:35:12;;;;;;;16.77;15.53;;;9.20;99.90;;;;;;5052487;28;20431;-74
2021/12/24 00:37:41;;;;;;;16.33;15.33;;;9.00;99.90;;;;;;5052053;28;20487;-74
2021/12/24 00:40:17;;;;;;;17.43;16.13;;;9.00;99.90;;;;;;5052408;28;20460;-73
2021/12/24 00:42:46;;;;;;;16.47;15.03;;;9.00;99.90;;;;;;5052311;28;20949;-74
2021/12/24 00:45:14;;;;;;;16.30;15.37;;;8.90;99.90;;;;;;5052403;28;20456;-74
2021/12/24 00:47:41;;;;;;;15.77;14.70;;;8.90;99.90;;;;;;5052059;28;20537;-72
2021/12/24 00:50:13;;;;;;;16.57;15.40;;;9.00;99.90;;;;;;5052000;28;20456;-72
2021/12/24 00:52:49;;;;;;;16.50;15.37;;;9.00;99.90;;;;;;5052078;28;20562;-72
2021/12/24 00:55:19;;;;;;;16.80;15.70;;;9.00;99.90;;;;;;5052673;28;20483;-72
2021/12/24 00:57:49;;;;;;;16.50;15.40;;;9.00;99.90;;;;;;5052081;28;20492;-72
2021/12/24 01:00:19;;;;;;;16.00;14.90;;;8.90;99.90;;;;;;5051934;28;20448;-72
2021/12/24 01:02:46;;;;;;;15.60;14.70;;;9.00;99.90;;;;;;5051780;28;20475;-71
2021/12/24 01:05:15;;;;;;;16.43;15.40;;;9.10;99.90;;;;;;5051984;28;20448;-72
2021/12/24 01:07:44;;;;;;;16.33;15.30;;;9.00;99.90;;;;;;5051560;28;20451;-71
2021/12/24 01:10:12;;;;;;;15.67;14.70;;;9.10;99.90;;;;;;5051745;28;20514;-74
2021/12/24 01:12:40;;;;;;;16.40;15.40;;;9.00;99.90;;;;;;5051691;28;20865;-71
2021/12/24 01:15:08;;;;;;;17.77;16.67;;;9.00;99.90;;;;;;5051864;28;20452;-74
2021/12/24 01:17:41;;;;;;;16.50;15.50;;;8.90;99.90;;;;;;5051533;28;20479;-75
2021/12/24 01:20:18;;;;;;;15.93;14.93;;;8.90;99.90;;;;;;5051436;28;20550;-72
2021/12/24 01:23:27;;;;;;;17.17;15.83;;;8.90;99.90;;;;;;5051403;28;20813;-74
2021/12/24 01:25:57;;;;;;;18.13;16.63;;;8.80;99.90;;;;;;5051712;28;20708;-75
2021/12/24 01:28:43;;;;;;;17.17;15.90;;;8.70;99.90;;;;;;5051532;28;20479;-74
2021/12/24 01:39:36;;;;;;;18.00;16.70;;;8.50;99.90;;;;;;5051269;28;20451;-75
2021/12/24 01:44:49;;;;;;;18.17;16.90;;;8.30;99.90;;;;;;5051003;28;20418;-74
2021/12/24 01:47:16;;;;;;;17.77;16.67;;;8.20;99.90;;;;;;5051086;28;20882;-74
2021/12/24 01:49:43;;;;;;;17.47;16.00;;;8.30;99.90;;;;;;5051654;28;20440;-74
2021/12/24 01:52:10;;;;;;;16.80;15.80;;;8.40;99.90;;;;;;5050865;28;20479;-73
2021/12/24 01:54:36;;;;;;;17.07;15.87;;;8.40;99.90;;;;;;5051006;28;20452;-73
2021/12/24 01:57:04;;;;;;;16.47;15.40;;;8.40;99.90;;;;;;5050965;28;20942;-73
2021/12/24 01:59:31;;;;;;;15.90;14.90;;;8.40;99.90;;;;;;5050896;28;20448;-73
2021/12/24 02:01:59;;;;;;;16.03;15.03;;;8.50;99.90;;;;;;5051031;28;20954;-73
2021/12/24 02:04:25;;;;;;;16.57;15.37;;;8.50;99.90;;;;;;5050986;28;20452;-73
2021/12/24 02:06:52;;;;;;;15.50;14.50;;;8.60;99.90;;;;;;5050930;28;20448;-73
2021/12/24 02:09:19;;;;;;;14.73;13.83;;;8.60;99.90;;;;;;5050839;28;20448;-73
2021/12/24 02:11:46;;;;;;;15.37;14.47;;;8.60;99.90;;;;;;5050949;28;20459;-73
2021/12/24 02:14:18;;;;;;;14.83;13.93;;;8.70;99.90;;;;;;5050126;28;20452;-73
2021/12/24 02:30:29;;;;;;;15.50;14.50;;;8.50;99.90;;;;;;5050830;28;20443;-74
2021/12/24 02:32:56;;;;;;;16.33;15.23;;;8.50;99.90;;;;;;5050732;28;20456;-75
2021/12/24 02:35:22;;;;;;;15.23;14.20;;;8.60;99.90;;;;;;5050988;28;20531;-75
2021/12/24 02:37:51;;;;;;;15.13;14.20;;;8.60;99.90;;;;;;5050469;28;20483;-74
2021/12/24 02:40:18;;;;;;;14.83;13.80;;;8.70;99.90;;;;;;5050394;28;20509;-74
2021/12/24 02:42:50;;;;;;;16.10;14.80;;;8.70;99.90;;;;;;5050797;28;20873;-73
2021/12/24 02:45:17;;;;;;;14.60;13.90;;;8.80;99.90;;;;;;5050459;28;20495;-73
2021/12/24 02:47:57;;;;;;;14.57;13.77;;;8.80;99.90;;;;;;5050153;28;20479;-74
2021/12/24 02:55:55;;;;;;;14.40;13.60;;;8.90;99.90;;;;;;5050299;28;20431;-74
2021/12/24 02:58:22;;;;;;;13.77;13.07;;;8.90;99.90;;;;;;5050322;28;20533;-73
2021/12/24 03:00:49;;;;;;;15.50;14.47;;;9.00;99.90;;;;;;5050195;28;20452;-73
2021/12/24 03:03:15;;;;;;;13.87;13.13;;;9.00;99.90;;;;;;5050476;28;20447;-74
2021/12/24 03:05:43;;;;;;;15.47;14.20;;;8.90;99.90;;;;;;5050171;28;20456;-73
2021/12/24 03:08:11;;;;;;;16.00;15.00;;;9.00;99.90;;;;;;5050241;28;21020;-73
2021/12/24 03:10:38;;;;;;;16.03;15.03;;;9.00;99.90;;;;;;5050154;28;20445;-74
2021/12/24 03:13:05;;;;;;;15.77;14.63;;;9.00;99.90;;;;;;5050261;28;20447;-73
2021/12/24 03:15:32;;;;;;;15.00;14.13;;;9.10;99.90;;;;;;5050275;28;20498;-73
2021/12/24 03:18:00;;;;;;;15.27;14.10;;;9.10;99.90;;;;;;5049864;28;20576;-74
2021/12/24 03:20:32;;;;;;;14.70;13.90;;;9.00;99.90;;;;;;5050187;28;20555;-74
2021/12/24 03:23:08;;;;;;;15.27;14.40;;;9.00;99.90;;;;;;5050180;28;21034;-73
2021/12/24 03:25:36;;;;;;;14.20;13.50;;;9.10;99.90;;;;;;5051029;28;20487;-73
2021/12/24 03:28:03;;;;;;;13.87;13.00;;;9.20;99.90;;;;;;5053606;28;20604;-73
2021/12/24 03:30:30;;;;;;;14.30;13.30;;;9.20;99.90;;;;;;5053725;28;20452;-73
2021/12/24 03:32:57;;;;;;;12.97;12.37;;;9.20;99.90;;;;;;5053727;28;20455;-74
2021/12/24 03:35:23;;;;;;;13.73;13.03;;;9.40;99.90;;;;;;5053572;28;20448;-73
2021/12/24 03:37:50;;;;;;;13.77;12.77;;;9.50;99.90;;;;;;5053243;28;20487;-73
2021/12/24 03:40:17;;;;;;;13.23;12.43;;;9.70;99.90;;;;;;5053692;28;20440;-74
2021/12/24 03:42:45;;;;;;;13.40;12.70;;;9.70;99.90;;;;;;5053592;28;20497;-73
2021/12/24 03:45:23;;;;;;;13.23;12.50;;;9.70;99.90;;;;;;5053430;28;20457;-75
2021/12/24 03:47:56;;;;;;;13.47;12.83;;;9.80;99.90;;;;;;5052979;28;20477;-72
2021/12/24 03:50:26;;;;;;;14.17;13.27;;;9.80;99.90;;;;;;5053787;28;20436;-73
2021/12/24 03:53:05;;;;;;;13.20;12.40;;;9.90;99.90;;;;;;5053616;28;20466;-74
2021/12/24 03:55:31;;;;;;;13.33;12.70;;;9.80;99.90;;;;;;5053581;28;20437;-73
2021/12/24 03:57:59;;;;;;;13.20;12.50;;;9.80;99.90;;;;;;5053274;28;20506;-74
2021/12/24 04:00:29;;;;;;;13.07;12.47;;;9.90;99.90;;;;;;5053370;28;20448;-74
2021/12/24 04:02:56;;;;;;;12.27;11.77;;;9.90;99.90;;;;;;5053274;28;20535;-73
2021/12/24 04:05:23;;;;;;;12.50;12.00;;;9.90;99.90;;;;;;5053250;28;20446;-74
2021/12/24 04:07:50;;;;;;;12.70;12.10;;;9.90;99.90;;;;;;5053176;28;20938;-73
2021/12/24 04:10:25;;;;;;;12.60;12.10;;;9.90;99.90;;;;;;5053114;28;20460;-74
2021/12/24 04:12:52;;;;;;;13.33;12.60;;;10.00;99.90;;;;;;5053069;28;20458;-74
2021/12/24 04:15:20;;;;;;;12.57;11.97;;;10.10;99.90;;;;;;5052992;28;20453;-73
2021/12/24 04:17:48;;;;;;;12.57;11.97;;;10.10;99.90;;;;;;5052888;28;20463;-74
2021/12/24 04:25:43;;;;;;;12.60;11.90;;;10.20;99.90;;;;;;5052837;28;20781;-73
2021/12/24 04:28:10;;;;;;;13.30;12.60;;;10.20;99.90;;;;;;5052766;28;20440;-74
2021/12/24 04:30:44;;;;;;;12.57;11.97;;;10.30;99.90;;;;;;5052934;28;20836;-74
2021/12/24 04:33:17;;;;;;;13.50;12.77;;;10.30;99.90;;;;;;5052876;28;20740;-73
2021/12/24 04:35:46;;;;;;;11.93;11.33;;;10.30;99.90;;;;;;5052197;28;20460;-73
2021/12/24 04:51:50;;;;;;;11.77;11.27;;;10.20;99.90;;;;;;5052144;28;20838;-74
2021/12/24 05:02:44;;;;;;;11.90;11.27;;;10.10;99.90;;;;;;5052220;28;20427;-75
2021/12/24 05:05:20;;;;;;;11.40;10.90;;;10.10;99.90;;;;;;5052242;28;20455;-74
2021/12/24 05:10:35;;;;;;;12.33;11.73;;;10.20;99.90;;;;;;5048916;28;20994;-74
2021/12/24 05:13:01;;;;;;;12.23;11.70;;;10.20;99.90;;;;;;5051956;28;20490;-75
2021/12/24 05:15:29;;;;;;;12.70;11.70;;;10.10;99.90;;;;;;5052042;28;20477;-75
2021/12/24 05:18:10;;;;;;;12.37;11.67;;;10.10;99.90;;;;;;5051882;28;20526;-74
2021/12/24 05:23:21;;;;;;;12.83;12.13;;;10.30;99.90;;;;;;5051727;28;20455;-73
2021/12/24 05:25:50;;;;;;;13.30;12.60;;;10.20;99.90;;;;;;5051740;28;20453;-73
2021/12/24 05:28:17;;;;;;;13.77;13.07;;;10.20;99.90;;;;;;5051624;28;20448;-75
2021/12/24 05:30:46;;;;;;;12.43;11.93;;;10.00;99.90;;;;;;5051731;28;20444;-74
2021/12/24 05:33:16;;;;;;;13.57;12.87;;;10.00;99.90;;;;;;5051612;28;20513;-75
2021/12/24 05:35:44;;;;;;;12.50;11.80;;;10.00;99.90;;;;;;5051481;28;20456;-75
2021/12/24 05:38:12;;;;;;;12.43;11.83;;;10.00;99.90;;;;;;5051659;28;20530;-74
2021/12/24 05:40:38;;;;;;;13.30;12.70;;;9.90;99.90;;;;;;5051741;28;20475;-75
2021/12/24 05:43:06;;;;;;;12.50;11.90;;;9.90;99.90;;;;;;5051465;28;20456;-74
2021/12/24 05:45:33;;;;;;;12.50;11.90;;;10.10;99.90;;;;;;5051699;28;20478;-74
2021/12/24 05:47:59;;;;;;;12.37;11.50;;;10.20;99.90;;;;;;5050606;28;20488;-74
2021/12/24 05:50:28;;;;;;;11.73;11.13;;;10.30;99.90;;;;;;5051375;28;20456;-75
2021/12/24 05:52:54;;;;;;;12.53;12.00;;;10.40;99.90;;;;;;5051258;28;20509;-74
2021/12/24 05:55:21;;;;;;;12.43;11.83;;;10.50;99.90;;;;;;5051657;28;20483;-72
2021/12/24 05:57:49;;;;;;;12.77;12.10;;;10.50;99.90;;;;;;5051308;28;20452;-76
2021/12/24 06:00:17;;;;;;;11.80;11.20;;;10.60;99.90;;;;;;5051173;28;20490;-77
2021/12/24 06:02:43;;;;;;;11.33;10.73;;;10.70;99.90;;;;;;5050862;28;20452;-74
2021/12/24 06:05:10;;;;;;;11.20;10.63;;;10.80;99.90;;;;;;5048199;28;20795;-74
2021/12/24 06:07:38;;;;;;;10.77;10.27;;;10.80;99.90;;;;;;5049909;28;20452;-75
2021/12/24 06:10:06;;;;;;;11.50;11.00;;;10.90;99.90;;;;;;5050938;28;20444;-74
2021/12/24 06:12:33;;;;;;;12.50;11.90;;;11.00;99.90;;;;;;5050876;28;20831;-74
2021/12/24 06:15:04;;;;;;;12.50;12.00;;;11.00;99.90;;;;;;5050911;28;20716;-74
2021/12/24 06:17:31;;;;;;;11.77;11.23;;;11.10;99.90;;;;;;5050708;28;20464;-75
2021/12/24 06:19:58;;;;;;;11.53;11.03;;;11.10;99.90;;;;;;5050621;28;20496;-75
2021/12/24 06:22:24;;;;;;;12.23;11.73;;;11.10;99.90;;;;;;5050819;28;20487;-75
2021/12/24 06:24:52;;;;;;;11.90;11.20;;;11.10;99.90;;;;;;5050690;28;20448;-74
2021/12/24 06:27:19;;;;;;;12.40;11.87;;;11.20;99.90;;;;;;5050632;28;20455;-74
2021/12/24 06:29:46;;;;;;;12.13;11.57;;;11.20;99.90;;;;;;5050958;28;20455;-74
2021/12/24 06:32:12;;;;;;;12.27;11.77;;;11.10;99.90;;;;;;5050721;28;20864;-74
2021/12/24 06:34:39;;;;;;;11.83;11.33;;;11.10;99.90;;;;;;5051332;28;20451;-75
2021/12/24 06:37:06;;;;;;;12.03;11.53;;;11.00;99.90;;;;;;5050938;28;20454;-76
2021/12/24 06:39:32;;;;;;;12.57;11.97;;;11.00;99.90;;;;;;5050947;28;20488;-74
2021/12/24 06:42:01;;;;;;;12.50;12.00;;;11.00;99.90;;;;;;5050996;28;20941;-75
2021/12/24 06:44:27;;;;;;;12.77;12.17;;;11.00;99.90;;;;;;5051110;28;20452;-74
2021/12/24 06:46:54;;;;;;;13.37;12.63;;;11.10;99.90;;;;;;5050791;28;20964;-75
2021/12/24 06:49:21;;;;;;;12.30;11.70;;;11.00;99.90;;;;;;5050625;28;20480;-75
2021/12/24 06:51:48;;;;;;;13.10;12.37;;;11.00;99.90;;;;;;5050809;28;20451;-75
2021/12/24 06:54:14;;;;;;;11.83;11.23;;;11.10;99.90;;;;;;5050934;28;20468;-75
2021/12/24 06:56:41;;;;;;;13.40;12.70;;;11.10;99.90;;;;;;5050912;28;20452;-73
2021/12/24 06:59:09;;;;;;;12.10;11.50;;;11.10;99.90;;;;;;5051124;28;20893;-73
2021/12/24 07:01:36;;;;;;;13.10;12.50;;;11.10;99.90;;;;;;5054512;28;20448;-74
2021/12/24 07:04:02;;;;;;;12.67;11.97;;;11.20;99.90;;;;;;5054675;28;20467;-74
2021/12/24 07:06:29;;;;;;;13.17;12.47;;;11.20;99.90;;;;;;5054753;28;20443;-74
2021/12/24 07:08:56;;;;;;;13.33;12.53;;;11.20;99.90;;;;;;5054947;28;20510;-73
2021/12/24 07:11:24;;;;;;;13.30;12.60;;;11.20;99.90;;;;;;5054721;28;20452;-74
2021/12/24 07:13:51;;;;;;;13.20;12.60;;;11.20;99.90;;;;;;5054448;28;20487;-74
2021/12/24 07:16:19;;;;;;;13.80;13.20;;;11.20;99.90;;;;;;5054405;28;20891;-73
2021/12/24 07:18:46;;;;;;;13.87;13.13;;;11.20;99.90;;;;;;5054658;28;20882;-74
2021/12/24 07:21:13;;;;;;;11.87;11.37;;;11.20;99.90;;;;;;5054284;28;20454;-74
2021/12/24 07:23:40;;;;;;;13.93;12.87;;;11.20;99.90;;;;;;5054078;28;20471;-73
2021/12/24 07:26:06;;;;;;;13.47;12.60;;;11.30;99.90;;;;;;5054336;28;20851;-74
2021/12/24 07:28:33;;;;;;;13.43;12.73;;;11.30;99.90;;;;;;5054034;28;20455;-74
2021/12/24 07:31:00;;;;;;;13.70;13.00;;;11.20;99.90;;;;;;5054293;28;20452;-74
2021/12/24 07:33:28;;;;;;;14.03;13.30;;;11.20;99.90;;;;;;5054339;28;20506;-75
2021/12/24 07:35:54;;;;;;;13.50;12.87;;;11.10;99.90;;;;;;5053744;28;20938;-74
2021/12/24 07:38:21;;;;;;;13.13;12.53;;;11.10;99.90;;;;;;5053950;28;20867;-73
2021/12/24 07:40:48;;;;;;;14.07;13.17;;;11.00;99.90;;;;;;5054054;28;20487;-74
2021/12/24 07:43:15;;;;;;;12.90;12.30;;;11.00;99.90;;;;;;5053985;28;20893;-73
2021/12/24 07:45:44;;;;;;;13.30;12.77;;;11.00;99.90;;;;;;5053648;28;20457;-75
2021/12/24 07:48:13;;;;;;;13.50;12.80;;;11.00;99.90;;;;;;5053687;28;20503;-75
2021/12/24 07:53:27;;;;;;;12.83;12.07;;;11.00;99.90;;;;;;5053720;28;20490;-74
2021/12/24 07:55:56;;;;;;;12.80;12.17;;;11.00;99.90;;;;;;5053744;28;20529;-74
2021/12/24 07:58:23;;;;;;;12.47;11.97;;;10.90;99.90;;;;;;5053681;28;20459;-74
2021/12/24 08:00:51;;;;;;;12.57;11.87;;;10.90;99.90;;;;;;5053356;28;20495;-74
2021/12/24 08:03:17;;;;;;;13.00;12.30;;;11.00;99.90;;;;;;5053754;28;20865;-74
2021/12/24 08:05:48;;;;;;;12.47;11.77;;;10.90;99.90;;;;;;5053210;28;20452;-74
2021/12/24 08:08:15;;;;;;;12.50;11.80;;;11.00;99.90;;;;;;5053439;28;20452;-73
2021/12/24 08:10:42;;;;;;;13.10;12.50;;;11.00;99.90;;;;;;5052741;28;20451;-75
2021/12/24 08:13:09;;;;;;;14.10;13.20;;;11.00;99.90;;;;;;5053128;28;20451;-75
2021/12/24 08:15:36;;;;;;;13.20;12.60;;;11.00;99.90;;;;;;5053426;28;20482;-75
2021/12/24 08:18:03;;;;;;;14.63;13.83;;;11.00;99.90;;;;;;5053349;28;20535;-74
2021/12/24 08:20:30;;;;;;;14.20;13.30;;;10.90;99.90;;;;;;5052916;28;20869;-75
2021/12/24 08:22:58;;;;;;;13.13;12.53;;;11.00;99.90;;;;;;5053129;28;20474;-75
2021/12/24 08:25:26;;;;;;;13.10;12.47;;;10.90;99.90;;;;;;5053037;28;20455;-75
2021/12/24 08:27:53;;;;;;;13.20;12.60;;;10.80;99.90;;;;;;5053042;28;20498;-74
2021/12/24 08:30:21;;;;;;;13.37;12.70;;;10.80;99.90;;;;;;5053382;28;20459;-74
2021/12/24 08:32:48;;;;;;;12.77;12.07;;;10.80;99.90;;;;;;5053350;28;20448;-73
2021/12/24 08:35:20;;;;;;;13.67;12.87;;;10.70;99.90;;;;;;5052969;28;20448;-75
2021/12/24 08:37:47;;;;;;;14.77;13.97;;;10.70;99.90;;;;;;5052918;28;20850;-75
2021/12/24 08:40:16;;;;;;;14.07;13.23;;;10.80;99.90;;;;;;5052516;28;20542;-73
2021/12/24 08:42:43;;;;;;;13.60;12.90;;;10.80;99.90;;;;;;5052408;28;20448;-75
2021/12/24 08:45:10;;;;;;;14.40;13.60;;;10.80;99.90;;;;;;5052516;28;20521;-76
2021/12/24 08:47:37;;;;;;;13.13;12.60;;;10.90;99.90;;;;;;5052266;28;20831;-75
2021/12/24 08:50:05;;;;;;;13.60;12.93;;;10.90;99.90;;;;;;5050556;28;20444;-74
2021/12/24 08:52:31;;;;;;;13.50;12.80;;;10.90;99.90;;;;;;5052253;28;20452;-74
2021/12/24 08:54:58;;;;;;;14.80;14.03;;;10.90;99.90;;;;;;5052232;28;20448;-75
2021/12/24 08:57:26;;;;;;;14.90;14.00;;;11.00;99.90;;;;;;5052297;28;20451;-75
2021/12/24 08:59:53;;;;;;;13.07;12.47;;;11.10;99.90;;;;;;5050416;28;21013;-75
2021/12/24 09:02:20;;;;;;;13.13;12.47;;;11.20;99.90;;;;;;5052210;28;20856;-75
2021/12/24 09:04:47;;;;;;;13.17;12.67;;;11.20;99.90;;;;;;5051750;28;20501;-76
2021/12/24 09:07:13;;;;;;;13.57;12.87;;;11.20;99.90;;;;;;5052131;28;20879;-76
2021/12/24 09:09:40;;;;;;;13.27;12.77;;;11.20;99.90;;;;;;5052179;28;20553;-76
2021/12/24 09:12:08;;;;;;;13.30;12.70;;;11.20;99.90;;;;;;5051908;28;20459;-76
2021/12/24 09:14:36;;;;;;;13.93;13.20;;;11.20;99.90;;;;;;5051812;28;20506;-76
2021/12/24 09:17:03;;;;;;;13.60;12.90;;;11.20;99.90;;;;;;5051804;28;20440;-76
2021/12/24 09:19:32;;;;;;;13.30;12.70;;;11.20;99.90;;;;;;5051805;28;20500;-75
2021/12/24 09:21:58;;;;;;;12.60;11.97;;;11.20;99.90;;;;;;5051682;28;20464;-76
2021/12/24 09:24:27;;;;;;;12.80;12.20;;;11.20;99.90;;;;;;5051641;28;20474;-75
2021/12/24 09:26:56;;;;;;;12.83;12.20;;;11.20;99.90;;;;;;5051618;28;20460;-76
2021/12/24 09:29:24;;;;;;;13.50;12.70;;;11.20;99.90;;;;;;5051562;28;20490;-75
2021/12/24 09:31:52;;;;;;;12.50;11.90;;;11.20;99.90;;;;;;5051508;28;20452;-76
2021/12/24 09:34:18;;;;;;;13.20;12.40;;;11.30;99.90;;;;;;5051369;28;20946;-76
2021/12/24 09:36:45;;;;;;;14.10;13.60;;;11.30;99.90;;;;;;5051367;28;20459;-75
2021/12/24 09:39:12;;;;;;;15.13;14.37;;;11.10;99.90;;;;;;5051110;28;20456;-75
2021/12/24 09:41:39;;;;;;;15.50;14.50;;;10.90;99.90;;;;;;5051393;28;20444;-75
2021/12/24 09:44:06;;;;;;;16.27;15.47;;;10.80;99.90;;;;;;5051346;28;20998;-76
2021/12/24 09:46:33;;;;;;;15.07;14.37;;;10.60;99.90;;;;;;5051385;28;20854;-75
2021/12/24 09:49:01;;;;;;;14.50;13.80;;;10.50;99.90;;;;;;5051081;28;20896;-75
2021/12/24 09:51:28;;;;;;;14.30;13.70;;;10.40;99.90;;;;;;5051013;28;20939;-75
2021/12/24 09:53:57;;;;;;;14.93;14.33;;;10.40;99.90;;;;;;5051137;28;20541;-75
2021/12/24 09:56:25;;;;;;;16.10;15.17;;;10.40;99.90;;;;;;5051359;28;20505;-73
2021/12/24 09:58:51;;;;;;;13.43;12.87;;;10.40;99.90;;;;;;5051210;28;20462;-75
2021/12/24 10:01:32;;;;;;;14.50;13.70;;;10.30;99.90;;;;;;5051108;28;20541;-75
2021/12/24 10:04:06;;;;;;;12.93;12.27;;;10.40;99.90;;;;;;5050938;28;20937;-75
2021/12/24 10:06:33;;;;;;;15.20;14.27;;;10.30;99.90;;;;;;5051093;28;20471;-75
2021/12/24 10:09:01;;;;;;;12.80;12.10;;;10.30;99.90;;;;;;5049159;28;20577;-75
2021/12/24 10:11:30;;;;;;;14.03;13.23;;;10.40;99.90;;;;;;5051069;28;20459;-75
2021/12/24 10:14:05;;;;;;;14.30;13.50;;;10.40;99.90;;;;;;5050873;28;20461;-75
2021/12/24 10:16:32;;;;;;;13.77;13.07;;;10.50;99.90;;;;;;5050980;28;20448;-75
2021/12/24 10:19:02;;;;;;;14.33;13.63;;;10.60;99.90;;;;;;5050728;28;20502;-75
2021/12/24 10:21:32;;;;;;;13.87;13.07;;;10.70;99.90;;;;;;5050750;28;20484;-77
2021/12/24 10:24:00;;;;;;;14.37;13.67;;;10.80;99.90;;;;;;5050809;28;20840;-76
2021/12/24 10:26:29;;;;;;;13.80;13.00;;;11.00;99.90;;;;;;5050828;28;20452;-76
2021/12/24 10:29:03;;;;;;;12.97;12.37;;;11.00;99.90;;;;;;5050815;28;20452;-76
2021/12/24 10:31:32;;;;;;;14.70;13.77;;;11.00;99.90;;;;;;5050900;28;20986;-75
2021/12/24 10:34:13;;;;;;;13.07;12.27;;;11.00;99.90;;;;;;5051082;28;20455;-75
2021/12/24 10:37:18;;;;;;;13.10;12.33;;;10.90;99.90;;;;;;5054923;28;20452;-75
2021/12/24 10:39:50;;;;;;;13.67;12.77;;;10.80;99.90;;;;;;5054662;28;20487;-75
2021/12/24 10:42:21;;;;;;;13.00;12.50;;;10.80;99.90;;;;;;5054729;28;20553;-75
2021/12/24 10:44:49;;;;;;;12.27;11.63;;;10.70;99.90;;;;;;5054603;28;20504;-75
2021/12/24 10:47:19;;;;;;;13.53;12.83;;;10.70;99.90;;;;;;5054390;28;20812;-75
2021/12/24 10:49:57;;;;;;;14.13;13.37;;;10.70;99.90;;;;;;5054674;28;20442;-74
2021/12/24 10:55:11;;;;;;;13.43;12.70;;;10.70;99.90;;;;;;5052288;28;20436;-75
2021/12/24 10:57:39;;;;;;;13.07;12.37;;;10.60;99.90;;;;;;5054445;28;20652;-74
2021/12/24 11:00:15;;;;;;;11.90;11.30;;;10.60;99.90;;;;;;5054413;28;20484;-74
2021/12/24 11:02:42;;;;;;;12.90;12.30;;;10.60;99.90;;;;;;5054503;28;20462;-75
2021/12/24 11:05:24;;;;;;;12.90;12.30;;;10.50;99.90;;;;;;5054027;28;20450;-75
2021/12/24 11:07:52;;;;;;;13.70;13.00;;;10.50;99.90;;;;;;5054318;28;20508;-75
2021/12/24 11:10:23;;;;;;;13.43;12.80;;;10.50;99.90;;;;;;5054193;28;20440;-76
2021/12/24 11:12:54;;;;;;;11.57;11.07;;;10.60;99.90;;;;;;5054375;28;20514;-75
2021/12/24 11:15:30;;;;;;;13.30;12.70;;;10.60;99.90;;;;;;5054454;28;20923;-77
2021/12/24 11:18:00;;;;;;;12.50;11.90;;;10.60;99.90;;;;;;5054599;28;20452;-75
2021/12/24 11:20:29;;;;;;;12.80;12.20;;;10.50;99.90;;;;;;5054263;28;20495;-76
2021/12/24 11:23:02;;;;;;;11.17;10.67;;;10.60;99.90;;;;;;5054314;28;20471;-75
2021/12/24 11:25:32;;;;;;;13.03;12.40;;;10.50;99.90;;;;;;5054378;28;20474;-75
2021/12/24 11:27:59;;;;;;;13.67;12.93;;;10.60;99.90;;;;;;5054417;28;20455;-76
2021/12/24 11:30:28;;;;;;;12.20;11.70;;;10.50;99.90;;;;;;5054223;28;21266;-75
2021/12/24 11:32:55;;;;;;;10.83;10.33;;;10.60;99.90;;;;;;5054067;28;20521;-76
2021/12/24 11:35:24;;;;;;;12.57;12.07;;;10.60;99.90;;;;;;5054052;28;20525;-76
2021/12/24 11:37:53;;;;;;;13.50;12.90;;;10.60;99.90;;;;;;5054096;28;20444;-75
2021/12/24 11:40:24;;;;;;;13.97;13.27;;;10.60;99.90;;;;;;5053934;28;20489;-76
2021/12/24 11:42:55;;;;;;;12.83;12.30;;;10.70;99.90;;;;;;5054118;28;20448;-74
2021/12/24 11:45:24;;;;;;;13.43;12.73;;;10.60;99.90;;;;;;5053181;28;20457;-77
2021/12/24 11:47:52;;;;;;;12.57;12.07;;;10.60;99.90;;;;;;5052672;28;20468;-76
2021/12/24 11:50:21;;;;;;;13.60;12.90;;;10.60;99.90;;;;;;5060699;28;21264;-75
2021/12/24 11:52:54;;;;;;;12.73;12.17;;;10.60;99.90;;;;;;5062192;28;20458;-76
2021/12/24 11:55:24;;;;;;;13.63;13.00;;;10.60;99.90;;;;;;5062701;28;20447;-76
2021/12/24 11:57:53;;;;;;;12.67;12.17;;;10.70;99.90;;;;;;5062261;28;20843;-76
2021/12/24 12:00:24;;;;;;;12.97;12.37;;;10.70;99.90;;;;;;5059992;28;20479;-77
2021/12/24 12:02:53;;;;;;;12.20;11.80;;;10.80;99.90;;;;;;5053668;28;20459;-76
2021/12/24 12:05:24;;;;;;;13.77;13.07;;;10.90;99.90;;;;;;5053494;28;20803;-75
2021/12/24 12:07:52;;;;;;;12.87;12.13;;;10.90;99.90;;;;;;5053508;28;20462;-76
2021/12/24 12:10:51;;;;;;;13.03;12.37;;;10.80;99.90;;;;;;5053468;28;20446;-75
2021/12/24 12:13:38;;;;;;;11.03;10.57;;;10.90;99.90;;;;;;5053749;28;20867;-75
2021/12/24 12:16:07;;;;;;;12.17;11.57;;;10.90;99.90;;;;;;5053096;28;20444;-74
2021/12/24 12:18:43;;;;;;;12.90;12.40;;;10.90;99.90;;;;;;5053470;28;20506;-75
2021/12/24 12:21:12;;;;;;;13.30;12.60;;;10.80;99.90;;;;;;5053253;28;20480;-75
2021/12/24 12:23:52;;;;;;;12.53;12.03;;;10.90;99.90;;;;;;5053134;28;20472;-75
2021/12/24 12:26:43;;;;;;;12.53;12.03;;;11.00;99.90;;;;;;5064156;28;20469;-74
2021/12/24 12:29:25;;;;;;;12.97;12.47;;;10.90;99.90;;;;;;5049383;28;20456;-75
2021/12/24 12:31:55;;;;;;;13.57;12.90;;;10.90;99.90;;;;;;5052329;28;20445;-75
2021/12/24 12:34:53;;;;;;;14.10;13.50;;;10.90;99.90;;;;;;5052622;28;20820;-75
2021/12/24 12:37:23;;;;;;;12.60;12.17;;;10.90;99.90;;;;;;5063663;28;20475;-74
2021/12/24 12:39:52;;;;;;;13.20;12.70;;;11.00;99.90;;;;;;5065628;28;20446;-75
2021/12/24 12:42:22;;;;;;;12.73;12.23;;;11.00;99.90;;;;;;5073079;28;20489;-74
2021/12/24 12:44:53;;;;;;;13.03;12.30;;;10.90;99.90;;;;;;5073038;28;20451;-74
2021/12/24 12:47:22;;;;;;;11.80;11.33;;;11.00;99.90;;;;;;5072826;28;20573;-74
2021/12/24 12:49:51;;;;;;;12.07;11.60;;;11.00;99.90;;;;;;5072964;28;20771;-75
2021/12/24 12:52:24;;;;;;;13.40;12.37;;;11.00;99.90;;;;;;5072937;28;20529;-75
2021/12/24 12:54:56;;;;;;;12.70;12.10;;;11.00;99.90;;;;;;5072862;28;20451;-74
2021/12/24 12:57:30;;;;;;;12.90;12.40;;;11.00;99.90;;;;;;5072593;28;20451;-74
2021/12/24 13:00:19;;;;;;;12.40;12.00;;;10.90;99.90;;;;;;5072801;28;20505;-74
2021/12/24 13:03:09;;;;;;;11.83;11.37;;;10.90;99.90;;;;;;5072734;28;20444;-74
2021/12/24 13:06:04;;;;;;;12.33;11.83;;;10.90;99.90;;;;;;5072630;28;20453;-75
2021/12/24 13:08:33;;;;;;;12.23;11.73;;;11.00;99.90;;;;;;5072544;28;20455;-75
2021/12/24 13:11:03;;;;;;;11.83;11.43;;;11.10;99.90;;;;;;5072512;28;20462;-75
2021/12/24 13:13:41;;;;;;;22.20;13.13;;;11.20;99.90;;;;;;5072490;28;20447;-74
2021/12/24 13:16:16;;;;;;;12.90;12.40;;;11.20;99.90;;;;;;5072469;28;20460;-75
2021/12/24 13:18:47;;;;;;;11.50;11.10;;;11.10;99.90;;;;;;5072537;28;21070;-75
2021/12/24 13:23:58;;;;;;;12.60;12.10;;;11.10;99.90;;;;;;5070385;28;20526;-75
2021/12/24 13:26:24;;;;;;;13.40;12.50;;;11.10;99.90;;;;;;5071976;28;21159;-75
2021/12/24 13:29:01;;;;;;;12.13;11.73;;;11.10;99.90;;;;;;5072055;28;20443;-75
2021/12/24 13:31:30;;;;;;;12.50;11.90;;;11.10;99.90;;;;;;5072050;28;20533;-75
2021/12/24 13:33:57;;;;;;;12.60;12.10;;;11.10;99.90;;;;;;5071820;28;20447;-75
2021/12/24 13:36:25;;;;;;;11.80;11.30;;;11.10;99.90;;;;;;5071870;28;20450;-75
2021/12/24 13:38:52;;;;;;;12.23;11.73;;;11.10;99.90;;;;;;5071943;28;20447;-75
2021/12/24 13:41:23;;;;;;;12.47;11.97;;;11.10;99.90;;;;;;5071757;28;20519;-75
2021/12/24 13:43:50;;;;;;;11.50;11.10;;;11.10;99.90;;;;;;5071877;28;20508;-75
2021/12/24 13:46:18;;;;;;;12.00;11.50;;;11.10;99.90;;;;;;5071832;28;20451;-75
2021/12/24 13:49:11;;;;;;;11.53;11.03;;;11.10;99.90;;;;;;5071678;28;20478;-75
2021/12/24 13:54:33;;;;;;;10.60;10.20;;;11.20;99.90;;;;;;5071651;28;20427;-74
2021/12/24 13:57:01;;;;;;;12.40;11.90;;;11.10;99.90;;;;;;5071788;28;20451;-74
2021/12/24 13:59:28;;;;;;;12.10;11.60;;;11.20;99.90;;;;;;5071554;28;20449;-73
2021/12/24 14:01:57;;;;;;;12.10;11.70;;;11.20;99.90;;;;;;5071439;28;20539;-73
2021/12/24 14:04:24;;;;;;;12.00;11.40;;;11.20;99.90;;;;;;5071412;28;20448;-73
2021/12/24 14:06:55;;;;;;;12.57;12.07;;;11.10;99.90;;;;;;5071626;28;20450;-74
2021/12/24 14:09:23;;;;;;;14.30;13.80;;;11.00;99.90;;;;;;5070847;28;20481;-74